Time;durP1;ratioP1;P1;durP2;ratioP2;P2;SDS_P1;SDS_P2;PMS_P1;PMS_P2;Temp;Humidity;BMP_temperature;BMP_pressure;BME280_temperature;BME280_humidity;BME280_pressure;Samples;Min_cycle;Max_cycle;Signal;HPM_P1;HPM_P2
2022/01/20 00:02:34;;;;;;;;;12.25;12.25;15.10;99.90;;;;;;5015107;28;11169;-46
2022/01/20 00:05:12;;;;;;;;;10.25;10.25;15.00;99.90;;;;;;5015871;28;11966;-43
2022/01/20 00:08:00;;;;;;;;;7.25;7.25;15.10;99.90;;;;;;5002649;28;11252;-48
2022/01/20 00:27:37;;;;;;;;;13.25;13.25;15.10;99.90;;;;;;5013499;28;11698;-45
2022/01/20 00:30:32;;;;;;;;;13.00;13.00;15.10;99.90;;;;;;5011000;28;11505;-46
2022/01/20 00:33:15;;;;;;;;;13.25;13.25;15.10;99.90;;;;;;5014394;28;11587;-52
2022/01/20 00:38:26;;;;;;;;;14.00;14.00;15.10;99.90;;;;;;5014709;28;11554;-45
2022/01/20 00:40:56;;;;;;;;;10.00;10.00;15.10;99.90;;;;;;5020600;28;11623;-53
2022/01/20 00:43:28;;;;;;;;;14.25;14.25;15.10;99.90;;;;;;5017340;28;11107;-52
2022/01/20 00:45:59;;;;;;;;;11.00;11.00;15.10;99.90;;;;;;4999466;28;12244;-49
2022/01/20 00:48:30;;;;;;;;;10.00;9.00;15.10;99.90;;;;;;5021395;28;11503;-48
2022/01/20 00:51:01;;;;;;;;;10.50;10.50;15.10;99.90;;;;;;5015467;28;10977;-52
2022/01/20 00:53:32;;;;;;;;;10.00;10.00;15.10;99.90;;;;;;5017492;28;11075;-52
2022/01/20 00:56:03;;;;;;;;;6.75;6.75;15.20;99.90;;;;;;5014211;28;11033;-51
2022/01/20 00:58:32;;;;;;;;;9.00;9.00;15.10;99.90;;;;;;5015606;28;11143;-51
2022/01/20 01:01:03;;;;;;;;;8.00;8.00;15.10;99.90;;;;;;5012747;28;11145;-50
2022/01/20 01:03:34;;;;;;;;;10.00;10.00;15.10;99.90;;;;;;5012268;28;10958;-48
2022/01/20 01:08:56;;;;;;;;;8.00;8.00;15.10;99.90;;;;;;5019604;28;10902;-45
2022/01/20 01:11:27;;;;;;;;;7.00;7.00;15.10;99.90;;;;;;5018788;28;11112;-51
2022/01/20 01:14:01;;;;;;;;;6.50;6.50;15.10;99.90;;;;;;5017763;28;10994;-53
2022/01/20 01:24:55;;;;;;;;;7.00;7.00;15.00;99.90;;;;;;5005313;28;11243;-48
2022/01/20 01:27:27;;;;;;;;;9.25;9.25;15.00;99.90;;;;;;5020212;28;11006;-44
2022/01/20 01:30:09;;;;;;;;;6.00;6.00;15.00;99.90;;;;;;5021374;28;11097;-46
2022/01/20 01:32:52;;;;;;;;;4.00;4.00;15.00;99.90;;;;;;5009114;28;11196;-46
2022/01/20 01:35:27;;;;;;;;;7.50;7.50;15.00;99.90;;;;;;5018236;28;11493;-47
2022/01/20 01:40:29;;;;;;;;;7.50;7.50;14.90;99.90;;;;;;5016798;28;10968;-48
2022/01/20 01:43:11;;;;;;;;;7.75;7.75;14.90;99.90;;;;;;4994290;28;11254;-45
2022/01/20 01:45:46;;;;;;;;;7.00;7.00;14.90;99.90;;;;;;5016876;28;11174;-48
2022/01/20 01:48:18;;;;;;;;;7.75;7.75;15.00;99.90;;;;;;5007391;28;11172;-44
2022/01/20 01:50:48;;;;;;;;;8.25;8.25;14.90;99.90;;;;;;5015398;28;11007;-47
2022/01/20 01:53:22;;;;;;;;;9.75;9.75;14.90;99.90;;;;;;5014978;28;11426;-49
2022/01/20 01:55:53;;;;;;;;;11.00;11.00;14.90;99.90;;;;;;5018090;28;11476;-48
2022/01/20 01:58:25;;;;;;;;;8.75;8.75;14.90;99.90;;;;;;5012315;28;12245;-46
2022/01/20 02:01:20;;;;;;;;;11.75;11.75;14.80;99.90;;;;;;5018271;28;11479;-46
2022/01/20 02:03:59;;;;;;;;;12.50;12.50;14.80;99.90;;;;;;4995672;28;11415;-45
2022/01/20 02:20:15;;;;;;;;;11.75;11.75;14.60;99.90;;;;;;5016570;28;11457;-45
2022/01/20 02:22:56;;;;;;;;;11.50;11.50;14.60;99.90;;;;;;5001673;28;11599;-48
2022/01/20 02:25:35;;;;;;;;;10.25;10.25;14.60;99.90;;;;;;4998029;28;11471;-47
2022/01/20 02:28:09;;;;;;;;;12.00;12.00;14.60;99.90;;;;;;5003930;28;12976;-48
2022/01/20 02:30:43;;;;;;;;;14.75;11.75;14.60;99.90;;;;;;5004297;28;11856;-45
2022/01/20 02:33:21;;;;;;;;;11.75;11.75;14.60;99.90;;;;;;5001254;28;12229;-49
2022/01/20 02:35:58;;;;;;;;;13.50;13.50;14.60;99.90;;;;;;4996497;28;11552;-47
2022/01/20 02:38:39;;;;;;;;;14.00;14.00;14.50;99.90;;;;;;4999155;28;11490;-45
2022/01/20 02:46:51;;;;;;;;;15.00;15.00;14.40;99.90;;;;;;5021015;28;11490;-47
2022/01/20 02:49:23;;;;;;;;;15.50;15.00;14.40;99.90;;;;;;5017142;28;11491;-45
2022/01/20 02:51:56;;;;;;;;;16.00;16.00;14.40;99.90;;;;;;5015260;28;11487;-50
2022/01/20 02:54:27;;;;;;;;;15.25;15.25;14.40;99.90;;;;;;5018717;28;11484;-47
2022/01/20 02:56:59;;;;;;;;;15.25;15.25;14.40;99.90;;;;;;5001350;28;11493;-46
2022/01/20 02:59:34;;;;;;;;;16.00;16.00;14.40;99.90;;;;;;5015159;28;12369;-46
2022/01/20 03:02:06;;;;;;;;;15.75;15.75;14.30;99.90;;;;;;5005627;28;11646;-48
2022/01/20 03:04:38;;;;;;;;;18.00;18.00;14.30;99.90;;;;;;5018664;28;11519;-49
2022/01/20 03:07:23;;;;;;;;;19.00;17.00;14.30;99.90;;;;;;5007935;28;11548;-48
2022/01/20 03:09:54;;;;;;;;;16.25;14.50;14.30;99.90;;;;;;4998782;28;12198;-46
2022/01/20 03:12:24;;;;;;;;;18.25;17.25;14.30;99.90;;;;;;5000361;28;11496;-51
2022/01/20 03:14:55;;;;;;;;;20.00;18.00;14.30;99.90;;;;;;5011077;28;11487;-46
2022/01/20 03:17:28;;;;;;;;;12.00;12.00;14.20;99.90;;;;;;5019299;28;11525;-47
2022/01/20 03:20:00;;;;;;;;;10.75;10.75;14.20;99.90;;;;;;5001568;28;11561;-48
2022/01/20 03:22:31;;;;;;;;;13.00;13.00;14.20;99.90;;;;;;5006525;28;11448;-44
2022/01/20 03:25:02;;;;;;;;;15.00;15.00;14.20;99.90;;;;;;5018182;28;13655;-50
2022/01/20 03:27:34;;;;;;;;;15.25;14.75;14.20;99.90;;;;;;5020931;28;11471;-48
2022/01/20 03:30:08;;;;;;;;;13.75;13.75;14.10;99.90;;;;;;5018983;28;11502;-47
2022/01/20 03:32:44;;;;;;;;;15.75;15.75;14.10;99.90;;;;;;5002588;28;11594;-45
2022/01/20 03:35:15;;;;;;;;;13.75;13.25;14.10;99.90;;;;;;5016544;28;11540;-46
2022/01/20 03:37:59;;;;;;;;;10.00;9.50;14.10;99.90;;;;;;5002189;28;11894;-46
2022/01/20 03:40:28;;;;;;;;;9.00;9.00;14.10;99.90;;;;;;4998808;28;11477;-48
2022/01/20 03:43:00;;;;;;;;;10.00;9.75;14.00;99.90;;;;;;5000133;28;11449;-50
2022/01/20 03:45:30;;;;;;;;;11.25;11.25;14.00;99.90;;;;;;5005853;28;11527;-50
2022/01/20 03:48:10;;;;;;;;;9.75;9.75;14.00;99.90;;;;;;4999056;28;11461;-48
2022/01/20 03:51:00;;;;;;;;;8.75;8.75;13.90;99.90;;;;;;5020266;28;11478;-56
2022/01/20 03:53:38;;;;;;;;;9.75;9.75;13.90;99.90;;;;;;5000507;28;11497;-46
2022/01/20 03:56:15;;;;;;;;;8.25;8.25;13.90;99.90;;;;;;5017050;28;11457;-47
2022/01/20 03:58:54;;;;;;;;;7.25;7.25;13.90;99.90;;;;;;5002084;28;11525;-49
2022/01/20 04:01:25;;;;;;;;;9.50;9.50;13.90;99.90;;;;;;4982836;28;11467;-47
2022/01/20 04:04:21;;;;;;;;;8.25;8.25;13.90;99.90;;;;;;5001022;28;11462;-51
2022/01/20 04:07:08;;;;;;;;;6.50;6.50;13.90;99.90;;;;;;5001225;28;11456;-44
2022/01/20 04:09:39;;;;;;;;;8.00;7.00;13.90;99.90;;;;;;5016656;28;11449;-47
2022/01/20 04:12:10;;;;;;;;;11.00;9.25;13.80;99.90;;;;;;5014142;28;11506;-45
2022/01/20 04:14:47;;;;;;;;;7.75;7.75;13.80;99.90;;;;;;5004337;28;11426;-45
2022/01/20 04:17:20;;;;;;;;;7.00;7.00;13.80;99.90;;;;;;5006292;28;11565;-49
2022/01/20 04:19:52;;;;;;;;;6.50;6.50;13.80;99.90;;;;;;5022168;28;11418;-46
2022/01/20 04:22:24;;;;;;;;;9.00;9.00;13.70;99.90;;;;;;5005069;28;11409;-45
2022/01/20 04:24:54;;;;;;;;;7.25;7.25;13.70;99.90;;;;;;4999678;28;11424;-47
2022/01/20 04:27:25;;;;;;;;;6.50;6.50;13.70;99.90;;;;;;5008208;28;11466;-46
2022/01/20 04:29:57;;;;;;;;;8.50;7.50;13.70;99.90;;;;;;5006492;28;11629;-49
2022/01/20 04:32:27;;;;;;;;;7.00;7.00;13.70;99.90;;;;;;5019963;28;11470;-49
2022/01/20 04:34:59;;;;;;;;;7.00;7.00;13.80;99.90;;;;;;5020369;28;11427;-50
2022/01/20 04:37:29;;;;;;;;;5.75;5.75;13.70;99.90;;;;;;5009246;28;11577;-50
2022/01/20 04:40:02;;;;;;;;;4.25;4.25;13.60;99.90;;;;;;5017417;28;11486;-50
2022/01/20 04:42:38;;;;;;;;;6.25;6.00;13.70;99.90;;;;;;4989007;28;11603;-47
2022/01/20 04:45:17;;;;;;;;;8.50;8.50;13.60;99.90;;;;;;5005232;28;11643;-47
2022/01/20 04:48:12;;;;;;;;;5.75;5.75;13.60;99.90;;;;;;5021169;28;11447;-48
2022/01/20 04:59:18;;;;;;;;;6.00;6.00;13.60;99.90;;;;;;5022684;28;12562;-47
2022/01/20 05:01:49;;;;;;;;;5.25;5.25;13.60;99.90;;;;;;5007297;28;11483;-49
2022/01/20 05:04:33;;;;;;;;;8.75;7.50;13.60;99.90;;;;;;4997593;28;11441;-46
2022/01/20 05:07:17;;;;;;;;;8.00;8.00;13.50;99.90;;;;;;5004022;28;12230;-48
2022/01/20 05:09:49;;;;;;;;;6.50;6.50;13.50;99.90;;;;;;5015556;28;12277;-49
2022/01/20 05:12:25;;;;;;;;;9.50;8.00;13.40;99.90;;;;;;5002698;28;11467;-47
2022/01/20 05:14:56;;;;;;;;;6.25;6.25;13.40;99.90;;;;;;5016876;28;11442;-49
2022/01/20 05:17:27;;;;;;;;;5.75;5.75;13.40;99.90;;;;;;5004675;28;11638;-48
2022/01/20 05:19:59;;;;;;;;;7.75;7.75;13.40;99.90;;;;;;5019196;28;11411;-48
2022/01/20 05:22:31;;;;;;;;;6.00;6.00;13.40;99.90;;;;;;5019064;28;11491;-46
2022/01/20 05:25:07;;;;;;;;;6.25;6.25;13.40;99.90;;;;;;5000962;28;11551;-47
2022/01/20 05:27:38;;;;;;;;;7.00;7.00;13.40;99.90;;;;;;5004742;28;11495;-48
2022/01/20 05:30:15;;;;;;;;;8.50;7.50;13.40;99.90;;;;;;5013561;28;11487;-45
2022/01/20 05:33:06;;;;;;;;;8.75;7.00;13.30;99.90;;;;;;5023629;28;11428;-46
2022/01/20 05:35:37;;;;;;;;;7.50;7.50;13.30;99.90;;;;;;5015007;28;11470;-48
2022/01/20 05:38:12;;;;;;;;;8.25;8.25;13.20;99.90;;;;;;4999501;28;11507;-46
2022/01/20 05:40:45;;;;;;;;;7.00;6.00;13.20;99.90;;;;;;5006009;28;11442;-46
2022/01/20 05:43:17;;;;;;;;;5.75;5.75;13.10;99.90;;;;;;4996582;28;12709;-48
2022/01/20 05:45:51;;;;;;;;;7.00;7.00;13.10;99.90;;;;;;4982419;28;11557;-50
2022/01/20 05:48:33;;;;;;;;;7.25;7.25;13.10;99.90;;;;;;5001932;28;11513;-44
2022/01/20 05:51:34;;;;;;;;;8.00;6.25;13.10;99.90;;;;;;5000002;28;12360;-49
2022/01/20 05:54:06;;;;;;;;;7.00;7.00;13.10;99.90;;;;;;5022620;28;12250;-47
2022/01/20 05:56:36;;;;;;;;;8.00;7.00;13.10;99.90;;;;;;4999691;28;11534;-47
2022/01/20 05:59:08;;;;;;;;;7.50;7.50;13.00;99.90;;;;;;4998860;28;11550;-45
2022/01/20 06:01:39;;;;;;;;;8.00;8.00;13.00;99.90;;;;;;4998110;28;11479;-48
2022/01/20 06:04:14;;;;;;;;;6.75;6.75;13.00;99.90;;;;;;5002945;28;11522;-47
2022/01/20 06:06:44;;;;;;;;;7.00;7.00;13.00;99.90;;;;;;4998501;28;11511;-46
2022/01/20 06:09:15;;;;;;;;;6.50;6.50;13.00;99.90;;;;;;5002965;28;11485;-46
2022/01/20 06:11:47;;;;;;;;;7.25;7.25;12.90;99.90;;;;;;4996300;28;11484;-47
2022/01/20 06:14:19;;;;;;;;;9.00;8.25;12.90;99.90;;;;;;5002959;28;12294;-46
2022/01/20 06:16:50;;;;;;;;;9.00;9.00;12.90;99.90;;;;;;5014061;28;11524;-47
2022/01/20 06:19:22;;;;;;;;;7.00;7.00;12.90;99.90;;;;;;5003331;28;11696;-46
2022/01/20 06:21:52;;;;;;;;;9.00;9.00;12.90;99.90;;;;;;5002178;28;11520;-47
2022/01/20 06:24:24;;;;;;;;;10.00;10.00;12.80;99.90;;;;;;5015994;28;11498;-49
2022/01/20 06:26:55;;;;;;;;;8.25;8.25;12.80;99.90;;;;;;5014766;28;11508;-46
2022/01/20 06:29:26;;;;;;;;;8.00;8.00;12.70;99.90;;;;;;5017398;28;11581;-46
2022/01/20 06:31:56;;;;;;;;;6.50;6.50;12.80;99.90;;;;;;5015547;28;11724;-46
2022/01/20 06:34:27;;;;;;;;;7.50;7.50;12.70;99.90;;;;;;5014215;28;11436;-46
2022/01/20 06:36:58;;;;;;;;;11.50;11.00;12.60;99.90;;;;;;5014465;28;11581;-48
2022/01/20 06:39:31;;;;;;;;;10.75;9.50;12.50;99.90;;;;;;4983739;28;11541;-46
2022/01/20 06:42:03;;;;;;;;;9.25;9.25;12.60;99.90;;;;;;5003228;28;11660;-47
2022/01/20 06:44:34;;;;;;;;;7.25;7.25;12.50;99.90;;;;;;5000835;28;11855;-46
2022/01/20 06:47:06;;;;;;;;;7.25;7.25;12.60;99.90;;;;;;5001434;28;11495;-48
2022/01/20 06:49:37;;;;;;;;;7.25;7.25;12.60;99.90;;;;;;5000423;28;11472;-48
2022/01/20 06:52:09;;;;;;;;;9.25;7.75;12.60;99.90;;;;;;4999504;28;11516;-46
2022/01/20 06:54:40;;;;;;;;;7.00;7.00;12.50;99.90;;;;;;5003130;28;11539;-47
2022/01/20 06:57:23;;;;;;;;;10.25;10.25;12.50;99.90;;;;;;4999010;28;11498;-53
2022/01/20 06:59:54;;;;;;;;;13.00;10.25;12.40;99.90;;;;;;4998796;28;11555;-54
2022/01/20 07:02:28;;;;;;;;;9.50;8.25;12.30;99.90;;;;;;5018707;28;11575;-45
2022/01/20 07:04:59;;;;;;;;;14.00;12.25;12.30;99.90;;;;;;5003646;28;11531;-47
2022/01/20 07:07:31;;;;;;;;;14.00;14.00;12.30;99.90;;;;;;5016954;28;12729;-47
2022/01/20 07:10:10;;;;;;;;;13.00;12.00;12.20;99.90;;;;;;4998803;28;11567;-50
2022/01/20 07:12:45;;;;;;;;;11.50;11.50;12.20;99.90;;;;;;5014861;28;11493;-51
2022/01/20 07:15:17;;;;;;;;;9.00;9.00;12.30;99.90;;;;;;5008761;28;11592;-46
2022/01/20 07:17:50;;;;;;;;;9.25;7.75;12.30;99.90;;;;;;4997871;28;11555;-47
2022/01/20 07:20:26;;;;;;;;;10.25;10.25;12.30;99.90;;;;;;4999987;28;11507;-47
2022/01/20 07:23:09;;;;;;;;;7.50;7.50;12.30;99.90;;;;;;4999334;28;11678;-48
2022/01/20 07:25:56;;;;;;;;;8.00;8.00;12.30;99.90;;;;;;5013562;28;11510;-48
2022/01/20 07:28:28;;;;;;;;;9.00;9.00;12.30;99.90;;;;;;4994300;28;11505;-48
2022/01/20 07:30:58;;;;;;;;;7.50;7.50;12.30;99.90;;;;;;4999802;28;11497;-48
2022/01/20 07:33:30;;;;;;;;;8.00;8.00;12.30;99.90;;;;;;5003754;28;11508;-47
2022/01/20 07:36:01;;;;;;;;;14.00;12.00;12.20;99.90;;;;;;5015648;28;11508;-47
2022/01/20 07:38:33;;;;;;;;;9.00;9.00;12.20;99.90;;;;;;4998694;28;11567;-49
2022/01/20 07:41:03;;;;;;;;;10.75;10.75;12.10;99.90;;;;;;5000092;28;11718;-47
2022/01/20 07:43:34;;;;;;;;;15.75;15.75;12.10;99.90;;;;;;5019762;28;11711;-46
2022/01/20 07:46:22;;;;;;;;;9.00;9.00;12.20;99.90;;;;;;4992519;28;11662;-48
2022/01/20 07:49:01;;;;;;;;;9.00;8.75;12.10;99.90;;;;;;5014386;28;11570;-45
2022/01/20 07:51:35;;;;;;;;;12.00;10.75;12.10;99.90;;;;;;5000168;28;11549;-49
2022/01/20 07:54:07;;;;;;;;;8.00;8.00;12.10;99.90;;;;;;5019892;28;11528;-46
2022/01/20 07:56:43;;;;;;;;;12.00;12.00;12.10;99.90;;;;;;4990629;28;11490;-46
2022/01/20 07:59:16;;;;;;;;;10.25;10.25;12.10;99.90;;;;;;5018453;28;11525;-47
2022/01/20 08:01:47;;;;;;;;;12.00;12.00;12.00;99.90;;;;;;4995753;28;11678;-47
2022/01/20 08:04:18;;;;;;;;;7.75;7.75;12.00;99.90;;;;;;5019385;28;11531;-47
2022/01/20 08:06:48;;;;;;;;;12.50;11.00;12.00;99.90;;;;;;5018414;28;11506;-49
2022/01/20 08:09:23;;;;;;;;;7.25;7.25;12.00;99.90;;;;;;5025260;28;11509;-49
2022/01/20 08:12:19;;;;;;;;;8.50;8.50;11.90;99.90;;;;;;5005592;28;11510;-47
2022/01/20 08:15:05;;;;;;;;;14.50;14.00;11.90;99.90;;;;;;4985933;28;11503;-49
2022/01/20 08:17:55;;;;;;;;;10.50;10.50;11.80;99.90;;;;;;5017931;28;11548;-50
2022/01/20 08:20:27;;;;;;;;;11.75;11.75;11.70;99.90;;;;;;5006935;28;11579;-52
2022/01/20 08:23:02;;;;;;;;;15.50;15.50;11.80;99.90;;;;;;5017504;28;11494;-46
2022/01/20 08:25:34;;;;;;;;;7.25;7.25;11.70;99.90;;;;;;5019955;28;11533;-47
2022/01/20 08:28:05;;;;;;;;;12.50;10.75;11.70;99.90;;;;;;5000777;28;11542;-49
2022/01/20 08:30:41;;;;;;;;;18.50;18.50;11.70;99.90;;;;;;5008143;28;11550;-46
2022/01/20 08:33:16;;;;;;;;;22.33;22.33;11.70;99.90;;;;;;4986785;28;11587;-48
2022/01/20 08:35:58;;;;;;;;;18.00;18.00;11.60;99.90;;;;;;5001004;28;11563;-48
2022/01/20 08:38:48;;;;;;;;;27.00;26.33;11.70;99.90;;;;;;5019330;28;8960;-45
2022/01/20 08:41:19;;;;;;;;;26.00;26.00;11.70;99.90;;;;;;5001263;28;12428;-51
2022/01/20 08:43:50;;;;;;;;;26.67;26.67;11.70;99.90;;;;;;5022809;28;8862;-54
2022/01/20 08:46:25;;;;;;;;;26.00;24.00;11.70;99.90;;;;;;4995369;28;9518;-47
2022/01/20 08:48:56;;;;;;;;;23.33;22.00;11.60;99.90;;;;;;4986604;28;8850;-46
2022/01/20 08:51:40;;;;;;;;;27.67;27.67;11.50;99.90;;;;;;4984382;28;8835;-47
2022/01/20 08:54:22;;;;;;;;;28.67;28.67;11.50;99.90;;;;;;5002120;28;8840;-44
2022/01/20 08:57:02;;;;;;;;;34.67;32.67;11.50;99.90;;;;;;5017630;28;9008;-46
2022/01/20 08:59:34;;;;;;;;;29.33;29.00;11.50;99.90;;;;;;5003842;28;8862;-47
2022/01/20 09:02:05;;;;;;;;;31.33;30.67;11.40;99.90;;;;;;5000143;28;9593;-47
2022/01/20 09:04:36;;;;;;;;;40.33;36.00;11.40;99.90;;;;;;5005075;28;8827;-46
2022/01/20 09:07:30;;;;;;;;;41.00;38.00;11.40;99.90;;;;;;5009608;28;8877;-50
2022/01/20 09:10:04;;;;;;;;;45.67;39.33;11.40;99.90;;;;;;5013766;28;8854;-53
2022/01/20 09:15:31;;;;;;;;;48.33;40.67;11.50;99.90;;;;;;5000807;28;8889;-54
2022/01/20 09:18:14;;;;;;;;;41.67;38.67;11.50;99.90;;;;;;5018226;28;8841;-48
2022/01/20 09:20:44;;;;;;;;;43.67;39.67;11.40;99.90;;;;;;5017126;28;9011;-47
2022/01/20 09:23:16;;;;;;;;;47.33;40.67;11.40;99.90;;;;;;5016230;28;8830;-49
2022/01/20 09:25:49;;;;;;;;;46.00;41.00;11.40;99.90;;;;;;5016194;28;8829;-45
2022/01/20 09:28:20;;;;;;;;;47.00;41.00;11.40;99.90;;;;;;5004031;28;9008;-45
2022/01/20 09:30:57;;;;;;;;;52.00;44.67;11.30;99.90;;;;;;5000613;28;8857;-46
2022/01/20 09:33:29;;;;;;;;;48.33;42.00;11.30;99.90;;;;;;4986701;28;8852;-49
2022/01/20 09:36:00;;;;;;;;;50.00;43.67;11.30;99.90;;;;;;5004217;28;8867;-49
2022/01/20 09:38:35;;;;;;;;;46.33;41.00;11.40;99.90;;;;;;5001753;28;8835;-46
2022/01/20 09:41:12;;;;;;;;;50.67;43.00;11.40;99.90;;;;;;5000345;28;8896;-46
2022/01/20 09:43:43;;;;;;;;;53.00;45.00;11.40;99.90;;;;;;5021440;28;8852;-46
2022/01/20 09:46:14;;;;;;;;;55.33;47.33;11.30;99.90;;;;;;5018685;28;8850;-49
2022/01/20 09:48:49;;;;;;;;;54.33;46.33;11.30;99.90;;;;;;5018887;28;9029;-48
2022/01/20 09:51:27;;;;;;;;;50.67;42.00;11.30;99.90;;;;;;5005459;28;8869;-46
2022/01/20 09:54:12;;;;;;;;;47.67;41.67;11.20;99.90;;;;;;5020524;28;8892;-47
2022/01/20 09:56:56;;;;;;;;;48.33;41.33;11.20;99.90;;;;;;5022447;28;8810;-48
2022/01/20 09:59:29;;;;;;;;;43.33;39.00;11.20;99.90;;;;;;4999711;28;9007;-49
2022/01/20 10:02:01;;;;;;;;;46.33;41.00;11.20;99.90;;;;;;5018926;28;9016;-46
2022/01/20 10:04:35;;;;;;;;;45.33;39.00;11.30;99.90;;;;;;4997384;28;8865;-47
2022/01/20 10:07:18;;;;;;;;;44.00;37.67;11.30;99.90;;;;;;5016737;28;8869;-47
2022/01/20 10:10:03;;;;;;;;;37.67;35.33;11.30;99.90;;;;;;5016680;28;8826;-47
2022/01/20 10:13:08;;;;;;;;;35.00;33.67;11.30;99.90;;;;;;5013393;28;8865;-48
2022/01/20 10:16:14;;;;;;;;;39.33;36.00;11.30;99.90;;;;;;5003294;28;8838;-50
2022/01/20 10:19:04;;;;;;;;;31.67;29.00;11.40;99.90;;;;;;5004733;28;8989;-46
2022/01/20 10:21:40;;;;;;;;;33.00;32.00;11.40;99.90;;;;;;5002644;28;8889;-46
2022/01/20 10:24:27;;;;;;;;;34.67;32.33;11.40;99.90;;;;;;5024544;28;8810;-47
2022/01/20 10:27:14;;;;;;;;;33.00;32.67;11.40;99.90;;;;;;5003837;28;8830;-47
2022/01/20 10:30:00;;;;;;;;;27.00;27.00;11.50;99.90;;;;;;5004286;28;8830;-46
2022/01/20 10:32:50;;;;;;;;;29.00;29.00;11.50;99.90;;;;;;5001642;28;12488;-49
2022/01/20 10:35:27;;;;;;;;;28.33;27.00;11.50;99.90;;;;;;5020046;28;8910;-47
2022/01/20 10:38:13;;;;;;;;;28.33;28.33;11.50;99.90;;;;;;5016633;28;8847;-46
2022/01/20 10:40:59;;;;;;;;;30.50;28.75;11.50;99.90;;;;;;5003233;28;8862;-48
2022/01/20 10:43:35;;;;;;;;;23.00;21.00;11.40;99.90;;;;;;5012321;28;11658;-49
2022/01/20 10:46:59;;;;;;;;;24.67;24.67;11.40;99.90;;;;;;5010161;28;11647;-49
2022/01/20 10:49:34;;;;;;;;;32.00;32.00;11.40;99.90;;;;;;5015917;28;8857;-53
2022/01/20 10:52:07;;;;;;;;;27.33;27.33;11.40;99.90;;;;;;5016446;28;8858;-47
2022/01/20 10:54:47;;;;;;;;;28.00;28.00;11.40;99.90;;;;;;5015061;28;8876;-46
2022/01/20 10:57:34;;;;;;;;;23.00;23.00;11.40;99.90;;;;;;4996127;28;8842;-46
2022/01/20 11:00:10;;;;;;;;;28.33;28.33;11.30;99.90;;;;;;5000400;28;9546;-46
2022/01/20 11:02:55;;;;;;;;;27.33;26.67;11.30;99.90;;;;;;5000240;28;8858;-49
2022/01/20 11:05:29;;;;;;;;;37.00;34.00;11.30;99.90;;;;;;5013387;28;8830;-48
2022/01/20 11:08:05;;;;;;;;;35.67;34.00;11.30;99.90;;;;;;4996095;28;8893;-47
2022/01/20 11:10:39;;;;;;;;;41.00;37.67;11.30;99.90;;;;;;4996291;28;9101;-50
2022/01/20 11:13:31;;;;;;;;;49.67;43.33;11.40;99.90;;;;;;5014817;28;8845;-48
2022/01/20 11:16:01;;;;;;;;;47.33;40.00;11.30;99.90;;;;;;5015994;28;8862;-47
2022/01/20 11:18:31;;;;;;;;;40.33;37.33;11.30;99.90;;;;;;4991177;28;8864;-45
2022/01/20 11:21:08;;;;;;;;;44.33;39.00;11.30;99.90;;;;;;4987128;28;9657;-46
2022/01/20 11:23:43;;;;;;;;;39.67;35.67;11.30;99.90;;;;;;5000272;28;8843;-48
2022/01/20 11:26:32;;;;;;;;;41.33;38.00;11.30;99.90;;;;;;5024185;28;8844;-49
2022/01/20 11:29:27;;;;;;;;;57.67;48.33;11.30;99.90;;;;;;4993848;28;8961;-47
2022/01/20 11:32:20;;;;;;;;;61.33;50.33;11.30;99.90;;;;;;5003526;28;8838;-46
2022/01/20 11:34:59;;;;;;;;;65.00;54.00;11.30;99.90;;;;;;5016425;28;8861;-46
2022/01/20 11:37:34;;;;;;;;;68.33;57.00;11.30;99.90;;;;;;5013746;28;9997;-47
2022/01/20 11:40:19;;;;;;;;;67.00;55.00;11.30;99.90;;;;;;5013949;28;8908;-46
2022/01/20 11:43:08;;;;;;;;;66.33;54.67;11.30;99.90;;;;;;5014708;28;8996;-48
2022/01/20 11:45:47;;;;;;;;;66.00;54.67;11.20;99.90;;;;;;5014733;28;8898;-46
2022/01/20 11:48:25;;;;;;;;;65.00;54.00;11.30;99.90;;;;;;5014171;28;8822;-46
2022/01/20 11:51:08;;;;;;;;;67.67;56.67;11.30;99.90;;;;;;5015420;28;8857;-49
2022/01/20 11:53:54;;;;;;;;;70.00;57.33;11.20;99.90;;;;;;5015186;28;8850;-50
2022/01/20 11:56:48;;;;;;;;;73.33;61.67;11.20;99.90;;;;;;5010020;28;8857;-50
2022/01/20 11:59:20;;;;;;;;;31.33;28.67;11.20;99.90;;;;;;5007250;28;8834;-49
2022/01/20 12:01:55;;;;;;;;;68.67;57.00;11.10;99.90;;;;;;5014191;28;8857;-52
2022/01/20 12:04:52;;;;;;;;;69.67;57.33;11.10;99.90;;;;;;5011468;28;9479;-50
2022/01/20 12:07:50;;;;;;;;;65.00;54.00;11.10;99.90;;;;;;5015231;28;8858;-47
2022/01/20 12:10:26;;;;;;;;;68.00;56.33;11.10;99.90;;;;;;5014924;28;8814;-44
2022/01/20 12:13:26;;;;;;;;;66.00;54.33;11.00;99.90;;;;;;5017058;28;8842;-46
2022/01/20 12:16:00;;;;;;;;;57.00;47.00;11.00;99.90;;;;;;5005496;28;8866;-47
2022/01/20 12:18:32;;;;;;;;;51.00;44.33;11.00;99.90;;;;;;5016353;28;8846;-48
2022/01/20 12:21:08;;;;;;;;;58.00;48.67;11.00;99.90;;;;;;5015716;28;8891;-50
2022/01/20 12:23:43;;;;;;;;;56.67;48.00;11.00;99.90;;;;;;5014992;28;8985;-48
2022/01/20 12:26:15;;;;;;;;;55.00;47.33;10.90;99.90;;;;;;5018794;28;8838;-50
2022/01/20 12:28:45;;;;;;;;;44.00;39.67;10.90;99.90;;;;;;5015653;28;8885;-49
2022/01/20 12:31:20;;;;;;;;;28.67;27.33;10.90;99.90;;;;;;5016338;28;8830;-47
2022/01/20 12:33:53;;;;;;;;;31.67;30.33;10.90;99.90;;;;;;5014161;28;8866;-51
2022/01/20 12:36:24;;;;;;;;;28.00;27.00;10.90;99.90;;;;;;5018305;28;8842;-48
2022/01/20 12:38:55;;;;;;;;;18.00;18.00;10.90;99.90;;;;;;5022887;28;8881;-47
2022/01/20 12:41:25;;;;;;;;;18.33;18.33;10.90;99.90;;;;;;5019604;28;8826;-47
2022/01/20 12:44:09;;;;;;;;;19.50;19.50;10.90;99.90;;;;;;5017348;28;8838;-50
2022/01/20 12:46:41;;;;;;;;;22.00;22.00;10.90;99.90;;;;;;5011868;28;8842;-50
2022/01/20 12:49:13;;;;;;;;;18.50;18.50;10.90;99.90;;;;;;5015492;28;8870;-49
2022/01/20 12:51:47;;;;;;;;;18.00;18.00;10.90;99.90;;;;;;5021041;28;8838;-49
2022/01/20 12:54:29;;;;;;;;;21.33;21.33;10.90;99.90;;;;;;4999792;28;8814;-45
2022/01/20 12:57:02;;;;;;;;;20.00;20.00;10.90;99.90;;;;;;4999000;28;8946;-49
2022/01/20 12:59:42;;;;;;;;;23.00;23.00;10.90;99.90;;;;;;4999122;28;8834;-46
2022/01/20 13:02:23;;;;;;;;;22.75;22.75;10.90;99.90;;;;;;5018382;28;9503;-45
2022/01/20 13:05:06;;;;;;;;;24.00;24.00;10.90;99.90;;;;;;5018827;28;11599;-49
2022/01/20 13:07:38;;;;;;;;;33.67;33.00;10.90;99.90;;;;;;5018746;28;11536;-46
2022/01/20 13:10:33;;;;;;;;;34.67;33.67;10.90;99.90;;;;;;5015060;28;8854;-45
2022/01/20 13:13:05;;;;;;;;;33.00;31.00;10.80;99.90;;;;;;5017505;28;12593;-50
2022/01/20 13:15:36;;;;;;;;;34.67;33.33;10.80;99.90;;;;;;5021463;28;8923;-45
2022/01/20 13:18:13;;;;;;;;;31.67;31.67;10.80;99.90;;;;;;5009803;28;8845;-46
2022/01/20 13:20:58;;;;;;;;;29.33;29.00;10.80;99.90;;;;;;5018118;28;8849;-47
2022/01/20 13:23:57;;;;;;;;;17.33;17.33;10.80;99.90;;;;;;5016959;28;8857;-47
2022/01/20 13:26:27;;;;;;;;;12.00;12.00;10.80;99.90;;;;;;5002331;28;8846;-45
2022/01/20 13:29:05;;;;;;;;;14.50;14.00;10.80;99.90;;;;;;5018776;28;11781;-45
2022/01/20 13:31:42;;;;;;;;;14.00;14.00;10.80;99.90;;;;;;5013692;28;11552;-48
2022/01/20 13:34:19;;;;;;;;;10.25;10.25;10.80;99.90;;;;;;5017183;28;11495;-48
2022/01/20 13:36:54;;;;;;;;;9.75;9.75;10.70;99.90;;;;;;5020394;28;11512;-47
2022/01/20 13:39:30;;;;;;;;;12.25;12.25;10.70;99.90;;;;;;5016584;28;11539;-47
2022/01/20 13:42:45;;;;;;;;;15.00;13.75;10.70;99.90;;;;;;5024414;28;11529;-48
2022/01/20 13:45:20;;;;;;;;;11.75;11.75;10.70;99.90;;;;;;5016843;28;11571;-45
2022/01/20 13:47:55;;;;;;;;;9.50;9.50;10.70;99.90;;;;;;5011313;28;11485;-49
2022/01/20 13:50:37;;;;;;;;;10.75;10.75;10.80;99.90;;;;;;5000271;28;11685;-49
2022/01/20 13:53:19;;;;;;;;;11.75;11.75;10.70;99.90;;;;;;5014643;28;12230;-47
2022/01/20 13:55:50;;;;;;;;;11.75;10.25;10.70;99.90;;;;;;5014360;28;11516;-44
2022/01/20 13:58:29;;;;;;;;;10.00;10.00;10.70;99.90;;;;;;5017322;28;12215;-48
2022/01/20 14:01:06;;;;;;;;;12.75;12.75;10.70;99.90;;;;;;5015090;28;11519;-45
2022/01/20 14:03:40;;;;;;;;;11.25;11.25;10.60;99.90;;;;;;5012120;28;11607;-49
2022/01/20 14:06:14;;;;;;;;;10.00;10.00;10.70;99.90;;;;;;5016683;28;11552;-44
2022/01/20 14:08:48;;;;;;;;;12.00;12.00;10.60;99.90;;;;;;5015990;28;12255;-46
2022/01/20 14:11:21;;;;;;;;;10.50;10.50;10.60;99.90;;;;;;5014891;28;11673;-46
2022/01/20 14:13:53;;;;;;;;;11.50;11.50;10.60;99.90;;;;;;5016954;28;11534;-48
2022/01/20 14:16:24;;;;;;;;;11.75;11.75;10.60;99.90;;;;;;4997964;28;11549;-46
2022/01/20 14:18:57;;;;;;;;;12.75;12.75;10.60;99.90;;;;;;5016504;28;11512;-46
2022/01/20 14:21:28;;;;;;;;;7.00;7.00;10.40;99.90;;;;;;5016148;28;11519;-47
2022/01/20 14:24:00;;;;;;;;;10.00;10.00;10.40;99.90;;;;;;4999965;28;11532;-44
2022/01/20 14:26:32;;;;;;;;;11.00;9.50;10.40;99.90;;;;;;5016608;28;11551;-47
2022/01/20 14:29:07;;;;;;;;;9.00;9.00;10.50;99.90;;;;;;5014939;28;11564;-45
2022/01/20 14:31:42;;;;;;;;;9.75;9.75;10.50;99.90;;;;;;5000336;28;11474;-45